createdAt,value
2018-05-13T00:01:02.109Z,12.80
2018-05-13T00:03:29.686Z,13.00
2018-05-13T00:05:57.251Z,13.20
2018-05-13T00:08:24.807Z,13.10
2018-05-13T00:10:52.371Z,13.10
2018-05-13T00:13:19.926Z,13.10
2018-05-13T00:15:47.532Z,13.20
2018-05-13T00:18:15.080Z,13.20
2018-05-13T00:20:43.420Z,13.20
2018-05-13T00:23:10.995Z,13.00
2018-05-13T00:25:39.306Z,13.30
2018-05-13T00:28:06.877Z,13.40
2018-05-13T00:30:34.420Z,13.10
2018-05-13T00:33:02.002Z,13.00
2018-05-13T00:35:29.642Z,13.30
2018-05-13T00:37:57.278Z,13.30
2018-05-13T00:40:24.769Z,13.30
2018-05-13T00:42:52.355Z,13.20
2018-05-13T00:45:19.950Z,13.40
2018-05-13T00:47:48.287Z,13.10
2018-05-13T00:50:15.876Z,13.20
2018-05-13T00:52:43.415Z,13.30
2018-05-13T00:55:10.989Z,13.10
2018-05-13T00:57:38.566Z,13.20
2018-05-13T01:00:06.398Z,13.10
2018-05-13T01:02:33.941Z,13.40
2018-05-13T01:05:01.687Z,13.40
2018-05-13T01:07:29.230Z,13.60
2018-05-13T01:09:56.803Z,13.50
2018-05-13T01:12:24.587Z,13.50
2018-05-13T01:14:52.196Z,13.50
2018-05-13T01:17:19.786Z,13.40
2018-05-13T01:19:47.645Z,13.30
2018-05-13T01:22:15.208Z,13.30
2018-05-13T01:24:42.752Z,13.20
2018-05-13T01:27:10.298Z,13.70
2018-05-13T01:29:37.869Z,13.40
2018-05-13T01:32:05.443Z,13.60
2018-05-13T01:34:32.966Z,13.60
2018-05-13T01:37:00.563Z,13.60
2018-05-13T01:39:28.201Z,13.50
2018-05-13T01:41:55.865Z,13.40
2018-05-13T01:44:23.447Z,13.30
2018-05-13T01:46:51.113Z,13.30
2018-05-13T01:49:18.688Z,13.10
2018-05-13T01:51:46.230Z,13.20
2018-05-13T01:54:13.780Z,13.00
2018-05-13T01:56:41.311Z,12.70
2018-05-13T01:59:08.895Z,13.10
2018-05-13T02:01:36.462Z,13.20
2018-05-13T02:04:04.297Z,13.40
2018-05-13T02:06:31.895Z,13.30
2018-05-13T02:08:59.422Z,13.30
2018-05-13T02:11:26.994Z,13.10
2018-05-13T02:13:54.523Z,13.00
2018-05-13T02:16:22.124Z,13.00
2018-05-13T02:18:49.645Z,12.80
2018-05-13T02:21:17.192Z,12.80
2018-05-13T02:23:44.725Z,12.90
2018-05-13T02:26:12.846Z,12.70
2018-05-13T02:28:40.400Z,12.60
2018-05-13T02:31:07.926Z,12.60
2018-05-13T02:33:35.473Z,12.70
2018-05-13T02:36:03.029Z,12.80
2018-05-13T02:38:30.612Z,12.90
2018-05-13T02:40:58.180Z,12.80
2018-05-13T02:43:25.719Z,12.70
2018-05-13T02:45:53.313Z,12.70
2018-05-13T02:48:20.841Z,12.90
2018-05-13T02:50:48.653Z,12.70
2018-05-13T02:53:16.211Z,12.60
2018-05-13T02:55:44.500Z,12.50
2018-05-13T02:58:12.845Z,12.60
2018-05-13T03:00:40.438Z,12.30
2018-05-13T03:03:08.062Z,12.50
2018-05-13T03:05:35.640Z,12.40
2018-05-13T03:08:03.961Z,12.50
2018-05-13T03:10:31.659Z,12.40
2018-05-13T03:12:59.240Z,12.70
2018-05-13T03:15:26.770Z,12.40
2018-05-13T03:17:54.339Z,12.40
2018-05-13T03:20:21.881Z,12.70
2018-05-13T03:22:49.520Z,12.70
2018-05-13T03:25:17.095Z,12.50
2018-05-13T03:27:44.635Z,12.50
2018-05-13T03:30:12.216Z,12.50
2018-05-13T03:32:39.929Z,12.60
2018-05-13T03:35:07.529Z,12.40
2018-05-13T03:37:35.212Z,12.50
2018-05-13T03:40:02.801Z,12.60
2018-05-13T03:42:30.403Z,12.30
2018-05-13T03:44:58.164Z,12.70
2018-05-13T03:47:25.706Z,12.60
2018-05-13T03:49:53.309Z,12.40
2018-05-13T03:52:20.869Z,12.40
2018-05-13T03:54:48.635Z,12.40
2018-05-13T03:57:16.167Z,12.50
2018-05-13T03:59:43.723Z,12.40
2018-05-13T04:02:11.289Z,12.40
2018-05-13T04:04:38.872Z,12.80
2018-05-13T04:07:06.416Z,12.40
2018-05-13T04:09:45.801Z,12.20
2018-05-13T04:12:25.273Z,12.00
2018-05-13T04:15:04.557Z,12.40
2018-05-13T04:17:32.883Z,12.10
2018-05-13T04:20:00.410Z,12.10
2018-05-13T04:22:27.989Z,12.40
2018-05-13T04:24:55.513Z,12.20
2018-05-13T04:27:23.102Z,12.40
2018-05-13T04:29:50.743Z,12.30
2018-05-13T04:32:18.333Z,12.10
2018-05-13T04:34:45.918Z,12.00
2018-05-13T04:37:13.462Z,12.10
2018-05-13T04:39:41.030Z,11.90
2018-05-13T04:42:08.613Z,12.00
2018-05-13T04:44:36.144Z,12.20
2018-05-13T04:47:03.709Z,12.00
2018-05-13T04:49:31.297Z,11.90
2018-05-13T04:51:58.817Z,12.20
2018-05-13T04:54:26.398Z,11.90
2018-05-13T04:56:54.013Z,11.90
2018-05-13T04:59:21.556Z,12.20
2018-05-13T05:01:49.120Z,12.00
2018-05-13T05:04:16.677Z,12.00
2018-05-13T05:06:44.242Z,12.10
2018-05-13T05:09:11.802Z,11.90
2018-05-13T05:11:39.313Z,11.80
2018-05-13T05:14:06.895Z,11.80
2018-05-13T05:16:34.549Z,12.10
2018-05-13T05:19:02.126Z,11.80
2018-05-13T05:21:29.744Z,11.80
2018-05-13T05:23:57.257Z,12.00
2018-05-13T05:26:24.829Z,11.70
2018-05-13T05:28:52.411Z,11.70
2018-05-13T05:31:19.953Z,11.80
2018-05-13T05:33:49.505Z,12.00
2018-05-13T05:36:17.039Z,11.90
2018-05-13T05:38:44.604Z,11.80
2018-05-13T05:41:12.141Z,11.70
2018-05-13T05:43:39.709Z,11.70
2018-05-13T05:46:07.232Z,12.00
2018-05-13T05:48:34.829Z,11.90
2018-05-13T05:51:02.370Z,11.70
2018-05-13T05:53:30.695Z,11.90
2018-05-13T05:55:58.229Z,11.80
2018-05-13T05:58:25.829Z,11.70
2018-05-13T06:00:53.410Z,11.80
2018-05-13T06:03:21.765Z,11.70
2018-05-13T06:05:49.364Z,11.70
2018-05-13T06:08:16.915Z,11.80
2018-05-13T06:10:44.514Z,11.70
2018-05-13T06:13:12.054Z,11.80
2018-05-13T06:15:39.632Z,11.70
2018-05-13T06:18:07.160Z,11.70
2018-05-13T06:20:34.727Z,12.00
2018-05-13T06:23:02.254Z,12.10
2018-05-13T06:25:29.879Z,11.90
2018-05-13T06:27:57.416Z,11.80
2018-05-13T06:30:24.982Z,11.70
2018-05-13T06:32:52.496Z,11.80
2018-05-13T06:35:20.075Z,11.90
2018-05-13T06:37:47.736Z,12.00
2018-05-13T06:40:15.302Z,12.00
2018-05-13T06:42:42.831Z,12.10
2018-05-13T06:45:11.292Z,11.90
2018-05-13T06:47:38.787Z,11.70
2018-05-13T06:50:06.370Z,11.90
2018-05-13T06:52:33.943Z,11.70
2018-05-13T06:55:01.519Z,11.80
2018-05-13T06:57:29.849Z,12.00
2018-05-13T06:59:57.420Z,12.00
2018-05-13T07:02:25.021Z,12.10
2018-05-13T07:04:52.537Z,12.00
2018-05-13T07:07:20.138Z,11.80
2018-05-13T07:09:47.746Z,11.90
2018-05-13T07:12:15.325Z,11.90
2018-05-13T07:14:43.077Z,11.90
2018-05-13T07:17:10.697Z,12.00
2018-05-13T07:19:38.326Z,12.00
2018-05-13T07:22:05.879Z,12.30
2018-05-13T07:24:33.503Z,12.20
2018-05-13T07:27:01.068Z,12.00
2018-05-13T07:29:28.660Z,12.00
2018-05-13T07:31:57.028Z,12.00
2018-05-13T07:34:24.602Z,12.00
2018-05-13T07:36:52.199Z,12.30
2018-05-13T07:39:19.763Z,12.30
2018-05-13T07:41:47.473Z,12.40
2018-05-13T07:44:15.018Z,12.10
2018-05-13T07:46:43.368Z,12.00
2018-05-13T07:49:10.919Z,12.10
2018-05-13T07:51:38.463Z,12.00
2018-05-13T07:54:06.052Z,12.00
2018-05-13T07:56:33.619Z,12.10
2018-05-13T07:59:02.834Z,12.30
2018-05-13T08:01:30.496Z,12.30
2018-05-13T08:03:58.077Z,12.20
2018-05-13T08:06:25.677Z,12.20
2018-05-13T08:08:54.767Z,12.10
2018-05-13T08:11:22.357Z,12.10
2018-05-13T08:13:49.982Z,12.10
2018-05-13T08:16:17.521Z,12.00
2018-05-13T08:18:45.109Z,12.10
2018-05-13T08:21:12.676Z,12.10
2018-05-13T08:23:40.219Z,12.10
2018-05-13T08:26:07.777Z,12.10
2018-05-13T08:28:35.408Z,12.10
2018-05-13T08:31:02.978Z,12.10
2018-05-13T08:33:30.649Z,11.70
2018-05-13T08:35:58.286Z,12.00
2018-05-13T08:38:25.833Z,12.00
2018-05-13T08:40:53.404Z,11.90
2018-05-13T08:43:20.976Z,11.70
2018-05-13T08:45:48.588Z,11.90
2018-05-13T08:48:16.139Z,12.00
2018-05-13T08:50:43.711Z,11.90
2018-05-13T08:53:12.012Z,11.90
2018-05-13T08:55:39.620Z,11.70
2018-05-13T08:58:07.236Z,12.00
2018-05-13T09:03:10.894Z,12.20
2018-05-13T09:05:38.424Z,12.10
2018-05-13T09:08:06.067Z,12.00
2018-05-13T09:10:33.631Z,12.20
2018-05-13T09:13:01.261Z,12.40
2018-05-13T09:15:28.842Z,12.30
2018-05-13T09:17:56.436Z,12.20
2018-05-13T09:20:24.159Z,12.00
2018-05-13T09:22:51.772Z,12.20
2018-05-13T09:25:20.622Z,12.40
2018-05-13T09:27:48.171Z,12.30
2018-05-13T09:30:16.484Z,12.30
2018-05-13T09:32:44.299Z,12.30
2018-05-13T09:35:11.976Z,12.60
2018-05-13T09:37:39.614Z,12.40
2018-05-13T09:40:07.188Z,12.40
2018-05-13T09:42:34.963Z,12.40
2018-05-13T09:45:02.537Z,12.40
2018-05-13T09:47:30.082Z,12.60
2018-05-13T09:49:57.666Z,12.40
2018-05-13T09:52:25.188Z,12.40
2018-05-13T09:54:52.861Z,12.10
2018-05-13T09:57:20.426Z,12.30
2018-05-13T09:59:48.795Z,12.30
2018-05-13T10:02:16.326Z,12.40
2018-05-13T10:04:43.944Z,12.60
2018-05-13T10:07:11.606Z,12.40
2018-05-13T10:09:39.192Z,12.70
2018-05-13T10:12:07.502Z,12.50
2018-05-13T10:14:35.507Z,12.30
2018-05-13T10:17:03.070Z,12.50
2018-05-13T10:19:31.397Z,12.40
2018-05-13T10:21:59.040Z,12.70
2018-05-13T10:24:26.571Z,12.50
2018-05-13T10:26:54.118Z,12.50
2018-05-13T10:29:21.687Z,12.40
2018-05-13T10:31:50.030Z,12.50
2018-05-13T10:34:17.643Z,12.50
2018-05-13T10:36:45.270Z,12.50
2018-05-13T10:39:13.618Z,12.40
2018-05-13T10:41:41.202Z,12.40
2018-05-13T10:44:09.621Z,12.40
2018-05-13T10:46:37.252Z,12.50
2018-05-13T10:49:04.831Z,12.70
2018-05-13T10:51:32.387Z,12.40
2018-05-13T10:53:59.993Z,12.30
2018-05-13T10:56:27.553Z,12.50
2018-05-13T10:58:55.253Z,12.50
2018-05-13T11:01:22.894Z,12.40
2018-05-13T11:03:50.427Z,12.80
2018-05-13T11:06:18.781Z,12.80
2018-05-13T11:08:46.360Z,12.70
2018-05-13T11:11:13.935Z,13.10
2018-05-13T11:13:42.354Z,12.90
2018-05-13T11:16:09.928Z,12.90
2018-05-13T11:18:37.505Z,12.90
2018-05-13T11:21:05.089Z,12.90
2018-05-13T11:23:33.404Z,13.10
2018-05-13T11:26:00.968Z,12.90
2018-05-13T11:28:28.655Z,13.10
2018-05-13T11:30:56.263Z,12.80
2018-05-13T11:33:23.800Z,12.90
2018-05-13T11:35:51.408Z,12.80
2018-05-13T11:38:18.993Z,13.00
2018-05-13T11:40:46.611Z,12.70
2018-05-13T11:43:14.211Z,12.90
2018-05-13T11:45:42.522Z,12.90
2018-05-13T11:48:10.888Z,12.90
2018-05-13T11:50:39.216Z,12.80
2018-05-13T11:53:06.799Z,12.90
2018-05-13T11:55:34.401Z,12.90
2018-05-13T11:58:01.995Z,12.80
2018-05-13T12:00:29.538Z,12.80
2018-05-13T12:02:57.110Z,12.80
2018-05-13T12:05:24.694Z,12.70
2018-05-13T12:07:53.067Z,13.00
2018-05-13T12:10:21.358Z,13.10
2018-05-13T12:12:49.725Z,13.00
2018-05-13T12:15:18.036Z,12.90
2018-05-13T12:17:45.630Z,12.80
2018-05-13T12:20:13.217Z,12.80
2018-05-13T12:22:40.752Z,12.80
2018-05-13T12:25:08.288Z,12.90
2018-05-13T12:27:35.869Z,12.80
2018-05-13T12:30:03.482Z,13.00
2018-05-13T12:32:31.019Z,13.00
2018-05-13T12:34:59.367Z,13.10
2018-05-13T12:37:26.911Z,13.20
2018-05-13T12:39:54.549Z,13.20
2018-05-13T12:42:22.126Z,13.20
2018-05-13T12:44:49.684Z,13.10
2018-05-13T12:47:17.279Z,13.10
2018-05-13T12:49:45.583Z,13.30
2018-05-13T12:52:13.165Z,13.10
2018-05-13T12:54:40.734Z,13.30
2018-05-13T12:57:08.493Z,13.50
2018-05-13T12:59:36.088Z,13.20
2018-05-13T13:02:04.475Z,13.10
2018-05-13T13:04:32.805Z,13.00
2018-05-13T13:07:00.393Z,13.10
2018-05-13T13:09:28.019Z,12.90
2018-05-13T13:11:55.614Z,12.90
2018-05-13T13:14:23.185Z,13.10
2018-05-13T13:16:50.965Z,13.20
2018-05-13T13:19:18.564Z,13.10
2018-05-13T13:21:46.144Z,13.10
2018-05-13T13:24:13.683Z,13.00
2018-05-13T13:26:41.280Z,13.10
2018-05-13T13:29:08.862Z,13.10
2018-05-13T13:31:36.433Z,13.10
2018-05-13T13:34:03.998Z,13.00
2018-05-13T13:36:32.045Z,13.00
2018-05-13T13:38:59.634Z,12.90
2018-05-13T13:41:27.371Z,13.00
2018-05-13T13:43:54.909Z,13.10
2018-05-13T13:46:23.253Z,13.20
2018-05-13T13:48:50.836Z,13.00
2018-05-13T13:51:18.379Z,13.50
2018-05-13T13:53:45.990Z,13.40
2018-05-13T13:56:13.589Z,13.30
2018-05-13T13:58:41.161Z,13.20
2018-05-13T14:01:09.548Z,13.20
2018-05-13T14:03:37.855Z,13.40
2018-05-13T14:06:05.438Z,13.30
2018-05-13T14:08:33.133Z,13.30
2018-05-13T14:11:01.451Z,13.30
2018-05-13T14:13:29.037Z,13.10
2018-05-13T14:15:56.639Z,13.20
2018-05-13T14:18:24.181Z,13.20
2018-05-13T14:20:52.563Z,13.40
2018-05-13T14:23:20.967Z,13.20
2018-05-13T14:25:48.573Z,13.10
2018-05-13T14:28:16.209Z,13.40
2018-05-13T14:30:43.888Z,13.60
2018-05-13T14:33:11.438Z,13.40
2018-05-13T14:35:39.038Z,13.30
2018-05-13T14:38:06.574Z,13.50
2018-05-13T14:40:34.153Z,13.80
2018-05-13T14:43:01.716Z,13.70
2018-05-13T14:45:29.316Z,13.30
2018-05-13T14:47:56.933Z,13.20
2018-05-13T14:50:24.503Z,13.10
2018-05-13T14:52:53.654Z,13.10
2018-05-13T14:55:21.222Z,13.20
2018-05-13T14:57:49.588Z,13.40
2018-05-13T15:00:17.190Z,13.30
2018-05-13T15:02:44.789Z,13.20
2018-05-13T15:05:12.434Z,13.20
2018-05-13T15:07:40.094Z,13.20
2018-05-13T15:10:07.752Z,13.30
2018-05-13T15:12:35.326Z,13.40
2018-05-13T15:15:03.006Z,13.50
2018-05-13T15:17:30.799Z,13.70
2018-05-13T15:19:59.173Z,13.40
2018-05-13T15:22:33.437Z,13.20
2018-05-13T15:25:01.025Z,13.50
2018-05-13T15:27:28.606Z,13.40
2018-05-13T15:29:56.956Z,13.30
2018-05-13T15:32:24.783Z,13.30
2018-05-13T15:34:52.334Z,13.10
2018-05-13T15:37:19.909Z,13.10
2018-05-13T15:39:47.458Z,13.00
2018-05-13T15:42:15.042Z,13.20
2018-05-13T15:44:42.617Z,13.10
2018-05-13T15:47:10.172Z,13.30
2018-05-13T15:49:37.758Z,13.20
2018-05-13T15:52:05.289Z,13.40
2018-05-13T15:54:32.859Z,13.10
2018-05-13T15:57:00.574Z,13.20
2018-05-13T15:59:28.131Z,13.50
2018-05-13T16:01:55.722Z,13.20
2018-05-13T16:04:23.265Z,13.30
2018-05-13T16:06:50.846Z,13.10
2018-05-13T16:09:18.440Z,13.50
2018-05-13T16:11:46.034Z,13.20
2018-05-13T16:14:13.641Z,13.20
2018-05-13T16:16:41.969Z,13.40
2018-05-13T16:19:09.783Z,13.40
2018-05-13T16:21:38.141Z,13.30
2018-05-13T16:24:06.518Z,13.70
2018-05-13T16:26:34.887Z,13.70
2018-05-13T16:29:02.423Z,13.50
2018-05-13T16:31:30.009Z,13.40
2018-05-13T16:33:57.641Z,13.30
2018-05-13T16:36:25.290Z,13.40
2018-05-13T16:38:53.021Z,13.30
2018-05-13T16:41:20.566Z,13.40
2018-05-13T16:43:48.910Z,13.60
2018-05-13T16:46:16.549Z,13.60
2018-05-13T16:48:44.207Z,13.70
2018-05-13T16:51:12.506Z,13.80
2018-05-13T16:53:40.112Z,13.80
2018-05-13T16:56:07.708Z,13.60
2018-05-13T16:58:35.277Z,13.70
2018-05-13T17:01:02.852Z,13.60
2018-05-13T17:03:30.444Z,13.50
2018-05-13T17:05:58.132Z,13.50
2018-05-13T17:08:25.715Z,13.50
2018-05-13T17:10:53.278Z,13.40
2018-05-13T17:13:20.871Z,13.50
2018-05-13T17:15:50.416Z,13.60
2018-05-13T17:18:18.163Z,13.70
2018-05-13T17:20:45.749Z,13.60
2018-05-13T17:23:13.330Z,13.60
2018-05-13T17:25:41.248Z,13.60
2018-05-13T17:28:08.809Z,13.50
2018-05-13T17:30:36.337Z,13.40
2018-05-13T17:33:03.906Z,13.40
2018-05-13T17:35:31.589Z,13.20
2018-05-13T17:37:59.157Z,13.20
2018-05-13T17:40:26.762Z,13.10
2018-05-13T17:42:54.298Z,13.40
2018-05-13T17:45:21.911Z,13.30
2018-05-13T17:47:49.475Z,13.50
2018-05-13T17:50:17.239Z,13.20
2018-05-13T17:52:44.804Z,13.10
2018-05-13T17:55:12.341Z,13.10
2018-05-13T17:57:40.028Z,13.20
2018-05-13T18:00:07.508Z,12.90
2018-05-13T18:02:35.236Z,13.30
2018-05-13T18:05:02.788Z,13.10
2018-05-13T18:07:30.439Z,13.40
2018-05-13T18:09:58.022Z,13.10
2018-05-13T18:12:26.168Z,13.00
2018-05-13T18:14:53.741Z,13.10
2018-05-13T18:17:21.372Z,13.10
2018-05-13T18:19:48.934Z,13.00
2018-05-13T18:22:16.477Z,12.90
2018-05-13T18:24:44.144Z,12.70
2018-05-13T18:27:11.606Z,13.00
2018-05-13T18:29:39.211Z,12.80
2018-05-13T18:32:06.881Z,12.70
2018-05-13T18:34:34.430Z,13.00
2018-05-13T18:37:02.018Z,12.70
2018-05-13T18:39:29.553Z,12.60
2018-05-13T18:41:57.143Z,12.60
2018-05-13T18:44:24.730Z,13.00
2018-05-13T18:46:52.278Z,12.70
2018-05-13T18:49:19.865Z,12.60
2018-05-13T18:51:47.478Z,12.50
2018-05-13T18:54:16.386Z,12.50
2018-05-13T18:56:43.967Z,12.50
2018-05-13T18:59:11.602Z,12.50
2018-05-13T19:01:39.179Z,12.50
2018-05-13T19:04:06.693Z,12.40
2018-05-13T19:06:34.355Z,12.40
2018-05-13T19:09:01.834Z,12.40
2018-05-13T19:11:29.434Z,12.40
2018-05-13T19:13:57.059Z,12.50
2018-05-13T19:16:24.732Z,12.30
2018-05-13T19:18:52.379Z,12.30
2018-05-13T19:21:19.887Z,12.40
2018-05-13T19:23:47.458Z,12.20
2018-05-13T19:26:15.797Z,12.10
2018-05-13T19:28:43.340Z,12.00
2018-05-13T19:31:10.881Z,12.00
2018-05-13T19:33:39.159Z,12.00
2018-05-13T19:36:07.809Z,12.00
2018-05-13T19:38:38.807Z,11.90
2018-05-13T19:41:06.505Z,11.90
2018-05-13T19:43:34.033Z,12.10
2018-05-13T19:46:01.599Z,11.80
2018-05-13T19:48:29.167Z,11.90
2018-05-13T19:50:56.742Z,11.80
2018-05-13T19:53:24.270Z,11.80
2018-05-13T19:55:51.836Z,12.00
2018-05-13T19:58:19.477Z,11.80
2018-05-13T20:00:47.053Z,12.00
2018-05-13T20:03:14.627Z,11.70
2018-05-13T20:05:42.227Z,11.70
2018-05-13T20:08:09.774Z,11.90
2018-05-13T20:10:37.437Z,11.50
2018-05-13T20:13:04.990Z,11.60
2018-05-13T20:15:32.578Z,11.60
2018-05-13T20:18:00.104Z,11.70
2018-05-13T20:20:27.787Z,11.90
2018-05-13T20:23:07.104Z,11.90
2018-05-13T20:25:34.679Z,11.80
2018-05-13T20:28:02.198Z,11.70
2018-05-13T20:30:29.775Z,11.80
2018-05-13T20:32:57.309Z,11.80
2018-05-13T20:35:24.975Z,11.80
2018-05-13T20:37:52.542Z,11.60
2018-05-13T20:40:20.122Z,11.70
2018-05-13T20:42:47.757Z,11.80
2018-05-13T20:45:15.337Z,12.00
2018-05-13T20:47:42.877Z,11.70
2018-05-13T20:50:10.443Z,11.90
2018-05-13T20:52:37.986Z,12.00
2018-05-13T20:55:05.541Z,12.10
2018-05-13T20:57:33.261Z,12.10
2018-05-13T21:00:00.803Z,12.10
2018-05-13T21:02:28.362Z,12.00
2018-05-13T21:04:56.105Z,12.30
2018-05-13T21:07:23.626Z,12.40
2018-05-13T21:09:51.969Z,12.10
2018-05-13T21:12:19.553Z,12.10
2018-05-13T21:14:47.127Z,12.00
2018-05-13T21:17:14.716Z,12.20
2018-05-13T21:19:42.241Z,12.10
2018-05-13T21:22:09.833Z,12.40
2018-05-13T21:24:37.431Z,12.10
2018-05-13T21:27:05.972Z,12.10
2018-05-13T21:29:33.572Z,12.10
2018-05-13T21:32:01.856Z,12.20
2018-05-13T21:34:30.195Z,12.00
2018-05-13T21:36:57.744Z,11.90
2018-05-13T21:39:25.310Z,11.80
2018-05-13T21:41:52.868Z,12.00
2018-05-13T21:44:20.439Z,11.90
2018-05-13T21:46:48.019Z,11.90
2018-05-13T21:49:15.799Z,11.70
2018-05-13T21:51:43.393Z,11.80
2018-05-13T21:54:10.982Z,12.00
2018-05-13T21:56:38.562Z,11.90
2018-05-13T21:59:06.249Z,12.00
2018-05-13T22:01:33.785Z,11.80
2018-05-13T22:04:01.362Z,11.70
2018-05-13T22:06:28.881Z,11.70
2018-05-13T22:08:56.482Z,12.00
2018-05-13T22:11:24.103Z,11.80
2018-05-13T22:13:51.679Z,11.70
2018-05-13T22:16:20.026Z,11.60
2018-05-13T22:18:47.601Z,11.60
2018-05-13T22:21:15.186Z,11.70
2018-05-13T22:23:42.759Z,11.50
2018-05-13T22:26:10.321Z,11.80
2018-05-13T22:28:37.864Z,11.40
2018-05-13T22:31:05.459Z,11.50
2018-05-13T22:33:33.069Z,11.40
2018-05-13T22:36:00.635Z,11.50
2018-05-13T22:38:28.943Z,11.30
2018-05-13T22:40:56.527Z,11.40
2018-05-13T22:43:24.875Z,11.40
2018-05-13T22:45:52.465Z,11.40
2018-05-13T22:48:20.050Z,11.60
2018-05-13T22:50:47.702Z,11.50
2018-05-13T22:53:15.274Z,11.40
2018-05-13T22:55:42.986Z,11.30
2018-05-13T22:58:10.565Z,11.30
2018-05-13T23:00:38.158Z,11.30
2018-05-13T23:03:05.715Z,11.10
2018-05-13T23:05:33.404Z,11.20
2018-05-13T23:08:01.768Z,11.20
2018-05-13T23:10:29.417Z,11.10
2018-05-13T23:12:56.974Z,11.30
2018-05-13T23:15:24.599Z,11.00
2018-05-13T23:17:52.237Z,11.10
2018-05-13T23:20:19.850Z,11.10
2018-05-13T23:22:48.153Z,11.20
2018-05-13T23:25:15.747Z,11.00
2018-05-13T23:27:43.312Z,11.10
2018-05-13T23:30:12.477Z,11.10
2018-05-13T23:32:40.060Z,11.20
2018-05-13T23:35:07.631Z,11.30
2018-05-13T23:37:35.184Z,11.30
2018-05-13T23:40:02.979Z,11.10
2018-05-13T23:42:30.678Z,11.00
2018-05-13T23:44:58.983Z,11.20
2018-05-13T23:47:27.200Z,11.10
2018-05-13T23:49:54.859Z,11.20
2018-05-13T23:52:22.415Z,11.20
2018-05-13T23:54:50.005Z,11.30
2018-05-13T23:57:17.530Z,11.10
2018-05-13T23:59:45.113Z,11.10
